Time;durP1;ratioP1;P1;durP2;ratioP2;P2;SDS_P1;SDS_P2;PMS_P1;PMS_P2;Temp;Humidity;BMP_temperature;BMP_pressure;BME280_temperature;BME280_humidity;BME280_pressure;Samples;Min_cycle;Max_cycle;Signal;HPM_P1;HPM_P2
2022/02/03 00:05:02;;;;;;;8.65;2.00;;;6.20;96.90;;;;;;4936590;28;20465;-79
2022/02/03 00:07:36;;;;;;;18.80;3.63;;;6.10;96.90;;;;;;4936423;28;20036;-78
2022/02/03 00:26:17;;;;;;;14.57;2.45;;;6.20;96.90;;;;;;4936175;28;20031;-77
2022/02/03 00:28:46;;;;;;;10.63;2.63;;;6.30;96.90;;;;;;4936148;28;20028;-78
2022/02/03 00:31:34;;;;;;;14.07;2.72;;;6.30;97.00;;;;;;4935920;28;20031;-76
2022/02/03 00:34:28;;;;;;;19.38;2.90;;;6.30;97.00;;;;;;4936053;28;20355;-77
2022/02/03 00:50:26;;;;;;;19.67;3.08;;;6.40;96.90;;;;;;4935818;28;20480;-76
2022/02/03 00:52:52;;;;;;;12.70;2.65;;;6.40;96.90;;;;;;4934691;29;20028;-76
2022/02/03 00:55:18;;;;;;;22.42;2.70;;;6.30;97.00;;;;;;4950617;28;20031;-76
2022/02/03 00:57:50;;;;;;;9.63;2.22;;;6.40;97.10;;;;;;4935893;28;20318;-77
2022/02/03 01:00:16;;;;;;;17.92;2.55;;;6.40;97.00;;;;;;4936168;29;20039;-77
2022/02/03 01:03:06;;;;;;;19.50;2.67;;;6.40;97.00;;;;;;4935672;28;20046;-76
2022/02/03 01:05:34;;;;;;;26.17;5.85;;;6.40;97.10;;;;;;4935590;28;20375;-76
2022/02/03 01:08:05;;;;;;;18.85;4.82;;;6.50;97.10;;;;;;4934162;28;20035;-75
2022/02/03 01:10:38;;;;;;;20.98;3.85;;;6.40;97.10;;;;;;4935271;28;20426;-77
2022/02/03 01:34:29;;;;;;;;;;;6.30;97.50;;;;;;4935671;28;20045;-76
2022/02/03 01:45:05;;;;;;;12.25;2.80;;;6.30;97.70;;;;;;4934855;29;20081;-75
2022/02/03 01:52:38;;;;;;;23.90;3.15;;;6.40;97.60;;;;;;4934672;28;20518;-75
2022/02/03 01:55:07;;;;;;;12.93;2.85;;;6.50;97.70;;;;;;4934540;28;20070;-75
2022/02/03 01:57:46;;;;;;;13.35;2.22;;;6.50;97.70;;;;;;4934426;28;20446;-75
2022/02/03 02:00:14;;;;;;;14.25;2.15;;;6.50;97.70;;;;;;4934815;29;20047;-76
2022/02/03 02:03:10;;;;;;;24.90;3.03;;;6.50;97.70;;;;;;4934336;28;20061;-76
2022/02/03 02:05:58;;;;;;;20.35;2.88;;;6.50;97.70;;;;;;4934317;28;20039;-75
2022/02/03 02:08:54;;;;;;;13.13;2.35;;;6.50;97.70;;;;;;4933299;29;20035;-76
2022/02/03 02:11:40;;;;;;;18.63;2.72;;;6.50;98.00;;;;;;4934324;28;20036;-75
2022/02/03 02:19:25;;;;;;;17.67;3.25;;;6.60;98.60;;;;;;4933904;28;20032;-76
2022/02/03 02:44:01;;;;;;;19.40;3.92;;;6.70;99.70;;;;;;4953197;28;20043;-76
2022/02/03 02:46:38;;;;;;;15.40;2.92;;;6.70;99.80;;;;;;4953256;28;20158;-76
2022/02/03 02:49:14;;;;;;;12.48;2.88;;;6.70;99.90;;;;;;4951951;28;20035;-77
2022/02/03 02:52:01;;;;;;;20.48;3.42;;;6.70;99.90;;;;;;4952929;28;20167;-76
2022/02/03 03:31:14;;;;;;;23.70;4.32;;;6.90;99.90;;;;;;4955180;28;20098;-76
2022/02/03 03:36:20;;;;;;;28.27;5.25;;;6.80;99.90;;;;;;4956956;28;20031;-77
2022/02/03 03:38:49;;;;;;;18.40;4.78;;;6.80;99.90;;;;;;4956208;28;20040;-77
2022/02/03 03:41:20;;;;;;;21.50;4.82;;;6.90;99.90;;;;;;4955898;28;20062;-77
2022/02/03 03:44:03;;;;;;;22.98;4.78;;;6.80;99.90;;;;;;4971093;28;20040;-77
2022/02/03 03:46:38;;;;;;;24.73;5.93;;;6.80;99.90;;;;;;4955987;28;20058;-76
2022/02/03 03:49:22;;;;;;;22.30;5.20;;;6.70;99.90;;;;;;4955910;28;20043;-76
2022/02/03 03:51:55;;;;;;;19.45;5.78;;;6.70;99.90;;;;;;4955833;28;20034;-76
2022/02/03 03:54:38;;;;;;;23.00;6.03;;;6.70;99.90;;;;;;4956303;28;20086;-76
2022/02/03 04:32:24;;;;;;;27.65;6.88;;;6.90;99.90;;;;;;4955535;28;20043;-77
2022/02/03 04:37:37;;;;;;;30.73;8.25;;;7.00;99.90;;;;;;4955561;28;20031;-76
2022/02/03 04:57:24;;;;;;;18.70;5.82;;;7.10;99.90;;;;;;4954946;28;20043;-77
2022/02/03 05:03:51;;;;;;;18.40;6.45;;;7.10;99.90;;;;;;4931683;28;20049;-78
2022/02/03 05:06:27;;;;;;;17.40;6.03;;;7.10;99.90;;;;;;4954830;28;20631;-76
2022/02/03 05:15:13;;;;;;;17.92;5.68;;;7.10;99.90;;;;;;4954811;28;20127;-77
2022/02/03 05:18:31;;;;;;;17.48;5.35;;;7.20;99.90;;;;;;4954869;28;20035;-79
2022/02/03 05:44:51;;;;;;;9.15;4.40;;;7.50;99.90;;;;;;4953939;28;20031;-77
2022/02/03 05:50:39;;;;;;;13.85;4.65;;;7.60;99.90;;;;;;4952661;28;20121;-79
2022/02/03 06:01:48;;;;;;;10.90;4.82;;;7.80;99.90;;;;;;4953475;28;20053;-78
2022/02/03 06:07:19;;;;;;;7.72;4.03;;;7.80;99.90;;;;;;4953750;28;20023;-77
2022/02/03 06:12:39;;;;;;;11.90;5.25;;;7.90;99.90;;;;;;4954083;28;20031;-78
2022/02/03 06:15:11;;;;;;;8.98;4.80;;;7.90;99.90;;;;;;4953338;28;20038;-79
2022/02/03 06:23:42;;;;;;;11.95;5.00;;;8.00;99.90;;;;;;4953194;28;20047;-77
2022/02/03 06:29:01;;;;;;;11.10;5.85;;;8.10;99.90;;;;;;4953184;28;20445;-78
2022/02/03 06:31:27;;;;;;;14.32;6.03;;;8.20;99.90;;;;;;4967323;28;20041;-77
2022/02/03 06:33:53;;;;;;;12.30;6.57;;;8.20;99.90;;;;;;4934166;28;20438;-76
2022/02/03 06:36:20;;;;;;;12.02;7.03;;;8.20;99.90;;;;;;4933798;29;20035;-77
2022/02/03 06:38:45;;;;;;;12.27;6.50;;;8.20;99.90;;;;;;4934410;28;20072;-78
2022/02/03 06:41:11;;;;;;;14.02;6.28;;;8.30;99.90;;;;;;4934303;28;20075;-76
2022/02/03 06:43:36;;;;;;;11.82;5.97;;;8.30;99.90;;;;;;4934454;28;20028;-77
2022/02/03 06:46:07;;;;;;;16.27;6.95;;;8.30;99.90;;;;;;4949046;28;20111;-77
2022/02/03 06:48:34;;;;;;;13.93;7.63;;;8.30;99.90;;;;;;4934358;28;20027;-78
2022/02/03 06:51:08;;;;;;;13.38;7.03;;;8.30;99.90;;;;;;4934538;29;20028;-78
2022/02/03 06:53:38;;;;;;;16.13;7.78;;;8.30;99.90;;;;;;4934255;28;20091;-79
2022/02/03 06:56:16;;;;;;;14.13;7.93;;;8.30;99.90;;;;;;4933891;28;20083;-78
2022/02/03 07:03:38;;;;;;;15.73;7.25;;;8.30;99.90;;;;;;4934319;28;20039;-77
2022/02/03 07:06:03;;;;;;;15.90;8.77;;;8.40;99.90;;;;;;4937716;29;20103;-81
2022/02/03 07:08:31;;;;;;;20.20;7.97;;;8.40;99.90;;;;;;4938287;28;20115;-77
2022/02/03 07:10:57;;;;;;;13.98;7.88;;;8.50;99.90;;;;;;4937756;28;20107;-79
2022/02/03 07:13:23;;;;;;;15.65;8.25;;;8.40;99.90;;;;;;4936027;28;20062;-78
2022/02/03 07:15:49;;;;;;;17.95;8.75;;;8.50;99.90;;;;;;4937287;29;20038;-77
2022/02/03 07:18:17;;;;;;;13.32;8.55;;;8.50;99.90;;;;;;4937766;29;20019;-77
2022/02/03 07:20:42;;;;;;;17.95;9.70;;;8.50;99.90;;;;;;4937186;28;20110;-75
2022/02/03 07:23:09;;;;;;;24.92;11.73;;;8.60;99.90;;;;;;4952160;28;20044;-75
2022/02/03 07:25:35;;;;;;;20.40;10.48;;;8.60;99.90;;;;;;4936906;28;20039;-77
2022/02/03 07:28:02;;;;;;;19.35;9.55;;;8.60;99.90;;;;;;4937354;28;20040;-82
2022/02/03 07:30:28;;;;;;;15.63;9.68;;;8.60;99.90;;;;;;4937229;29;20264;-84
2022/02/03 07:32:59;;;;;;;18.83;10.05;;;8.70;99.90;;;;;;4936970;29;20058;-79
2022/02/03 07:35:28;;;;;;;19.25;9.65;;;8.70;99.90;;;;;;4936953;28;20107;-81
2022/02/03 07:37:54;;;;;;;17.80;9.43;;;8.70;99.90;;;;;;4937032;28;20032;-81
2022/02/03 07:40:19;;;;;;;16.38;9.02;;;8.70;99.90;;;;;;4936089;29;20034;-80
2022/02/03 07:42:47;;;;;;;16.55;8.82;;;8.70;99.90;;;;;;4936999;28;20075;-79
2022/02/03 07:45:14;;;;;;;;;;;8.80;99.90;;;;;;4937186;29;20115;-79
2022/02/03 07:47:44;;;;;;;16.67;8.93;;;8.80;99.90;;;;;;4936507;28;19918;-82
2022/02/03 07:50:09;;;;;;;15.77;8.93;;;8.80;99.90;;;;;;4936663;28;20046;-80
2022/02/03 07:52:35;;;;;;;16.10;9.15;;;8.80;99.90;;;;;;4936501;28;20031;-79
2022/02/03 07:55:01;;;;;;;20.13;9.63;;;8.80;99.90;;;;;;4936979;28;20099;-80
2022/02/03 07:57:27;;;;;;;19.02;8.73;;;8.80;99.90;;;;;;4936928;29;20019;-79
2022/02/03 07:59:55;;;;;;;17.58;8.82;;;8.80;99.90;;;;;;4936521;28;20361;-80
2022/02/03 08:02:20;;;;;;;21.35;11.35;;;8.80;99.90;;;;;;4936566;28;20039;-79
2022/02/03 08:04:48;;;;;;;25.65;11.73;;;8.90;99.90;;;;;;4937454;28;20070;-78
2022/02/03 08:07:16;;;;;;;21.73;11.23;;;8.90;99.90;;;;;;4936715;28;20070;-81
2022/02/03 08:09:53;;;;;;;18.27;10.15;;;8.90;99.90;;;;;;4937354;28;20053;-77
2022/02/03 08:12:21;;;;;;;20.55;11.02;;;8.90;99.90;;;;;;4936864;29;20019;-80
2022/02/03 08:14:49;;;;;;;22.63;11.32;;;9.00;99.90;;;;;;4937201;28;20533;-80
2022/02/03 08:17:21;;;;;;;24.08;11.95;;;9.00;99.90;;;;;;4935897;28;20032;-82
2022/02/03 08:20:00;;;;;;;21.90;10.35;;;9.00;99.90;;;;;;4936532;28;20119;-80
2022/02/03 08:22:32;;;;;;;26.10;11.48;;;9.00;99.90;;;;;;4936823;28;20036;-81
2022/02/03 08:25:20;;;;;;;22.85;11.07;;;9.00;99.90;;;;;;4936772;28;20035;-83
2022/02/03 08:33:00;;;;;;;24.88;12.85;;;9.10;99.90;;;;;;4935847;28;20130;-80
2022/02/03 08:35:43;;;;;;;23.88;12.50;;;9.20;99.90;;;;;;4935809;28;20033;-78
2022/02/03 08:40:57;;;;;;;24.17;12.30;;;9.30;99.90;;;;;;4935414;28;20040;-73
2022/02/03 08:43:24;;;;;;;24.92;12.80;;;9.40;99.90;;;;;;4935458;28;20086;-73
2022/02/03 08:45:49;;;;;;;26.90;14.07;;;9.40;99.90;;;;;;4935155;28;20066;-83
2022/02/03 08:48:16;;;;;;;21.70;11.45;;;9.50;99.90;;;;;;4935995;29;20480;-80
2022/02/03 08:50:43;;;;;;;20.40;11.15;;;9.40;99.90;;;;;;4935658;28;20119;-84
2022/02/03 08:55:47;;;;;;;36.28;19.38;;;9.40;99.90;;;;;;4935762;28;20043;-81
2022/02/03 08:58:36;;;;;;;24.00;12.97;;;9.30;99.90;;;;;;4935412;28;20029;-82
2022/02/03 09:29:21;;;;;;;24.02;11.68;;;9.70;99.90;;;;;;4934798;28;20090;-82
2022/02/03 09:49:59;;;;;;;19.75;10.45;;;9.70;99.90;;;;;;4936060;28;20562;-75
2022/02/03 09:51:01;;;;;;;18.25;10.77;;;9.80;99.90;;;;;;4935425;29;20545;-77
2022/02/03 09:56:10;;;;;;;23.25;11.25;;;9.80;99.90;;;;;;4935718;28;20028;-78
2022/02/03 09:58:52;;;;;;;22.40;11.95;;;9.80;99.90;;;;;;4936103;28;20043;-82
2022/02/03 10:01:30;;;;;;;19.75;11.50;;;9.90;99.90;;;;;;4936025;29;20043;-79
2022/02/03 10:04:09;;;;;;;;;;;9.90;99.90;;;;;;4935430;28;20027;-81
2022/02/03 10:06:42;;;;;;;23.17;12.32;;;9.90;99.90;;;;;;4934092;28;19906;-80
2022/02/03 10:09:08;;;;;;;21.80;12.30;;;10.00;99.90;;;;;;4934362;29;20034;-79
2022/02/03 10:11:33;;;;;;;24.05;14.05;;;10.10;99.90;;;;;;4933982;28;20123;-78
2022/02/03 10:14:04;;;;;;;24.35;13.60;;;10.10;99.90;;;;;;4933884;28;20118;-76
2022/02/03 10:16:30;;;;;;;22.73;13.25;;;10.00;99.90;;;;;;4933722;28;20305;-80
2022/02/03 10:19:18;;;;;;;22.05;12.02;;;10.00;99.90;;;;;;4933905;28;20047;-79
2022/02/03 10:21:47;;;;;;;25.17;13.40;;;10.10;99.90;;;;;;4933940;28;20024;-84
2022/02/03 10:24:16;;;;;;;24.98;14.18;;;10.00;99.90;;;;;;4934259;29;20024;-79
2022/02/03 10:26:48;;;;;;;22.75;13.77;;;10.00;99.90;;;;;;4933851;28;20066;-79
2022/02/03 10:29:23;;;;;;;24.20;13.15;;;10.10;99.90;;;;;;4934193;28;20051;-78
2022/02/03 10:31:50;;;;;;;24.08;13.90;;;10.10;99.90;;;;;;4933945;28;20044;-81
2022/02/03 10:34:25;;;;;;;22.23;12.55;;;10.10;99.90;;;;;;4934204;28;20082;-82
2022/02/03 10:37:06;;;;;;;25.08;14.70;;;10.20;99.90;;;;;;4933926;28;20110;-77
2022/02/03 11:00:11;;;;;;;41.58;21.55;;;10.00;99.90;;;;;;4933526;28;20036;-83
2022/02/03 11:03:10;;;;;;;42.45;21.50;;;10.00;99.90;;;;;;4933633;28;20128;-80
2022/02/03 11:05:49;;;;;;;47.70;23.00;;;9.90;99.90;;;;;;4933146;28;20036;-82
2022/02/03 11:08:20;;;;;;;41.83;21.83;;;10.00;99.90;;;;;;4933242;28;20107;-81
2022/02/03 11:10:51;;;;;;;39.78;21.13;;;10.00;99.90;;;;;;4933781;28;20382;-82
2022/02/03 11:13:19;;;;;;;42.05;19.75;;;9.90;99.90;;;;;;4933454;29;20063;-80
2022/02/03 11:15:45;;;;;;;40.40;20.83;;;10.00;99.90;;;;;;4933551;28;20094;-82
2022/02/03 11:18:13;;;;;;;36.10;19.65;;;10.00;99.90;;;;;;4936712;29;20489;-83
2022/02/03 11:20:42;;;;;;;;;;;10.00;99.90;;;;;;4935181;28;20043;-83
2022/02/03 11:31:16;;;;;;;33.05;17.42;;;9.90;99.90;;;;;;4934011;28;20043;-80
2022/02/03 11:34:10;;;;;;;34.45;17.98;;;9.90;99.90;;;;;;4934720;28;20143;-81
2022/02/03 11:42:46;;;;;;;34.83;19.58;;;9.90;99.90;;;;;;4933347;29;20143;-79
2022/02/03 11:51:03;;;;;;;29.77;16.73;;;10.00;99.90;;;;;;4938664;28;20470;-90
2022/02/03 12:01:40;;;;;;;31.38;16.13;;;10.10;99.90;;;;;;4940707;28;20042;-83
2022/02/03 12:23:54;;;;;;;38.80;21.95;;;10.40;99.90;;;;;;4936127;28;20378;-81
2022/02/03 12:26:41;;;;;;;37.65;21.15;;;10.40;99.90;;;;;;4929809;29;20451;-79
2022/02/03 12:29:23;;;;;;;33.95;18.17;;;10.40;99.90;;;;;;4936024;28;20052;-77
2022/02/03 12:37:56;;;;;;;26.85;16.17;;;10.40;99.90;;;;;;4938311;28;20171;-85
2022/02/03 12:40:51;;;;;;;23.40;13.57;;;10.40;99.90;;;;;;4938004;28;20035;-81
2022/02/03 12:45:45;;;;;;;23.25;13.70;;;10.50;99.90;;;;;;4938023;28;20028;-81
2022/02/03 12:48:12;;;;;;;20.98;12.20;;;10.50;99.90;;;;;;4938277;29;20043;-86
2022/02/03 12:50:40;;;;;;;22.70;13.27;;;10.50;99.90;;;;;;4937872;28;20375;-86
2022/02/03 12:53:07;;;;;;;;;;;10.60;99.90;;;;;;4937438;28;20032;-79
2022/02/03 12:55:37;;;;;;;29.73;13.85;;;10.60;99.90;;;;;;4936982;28;19922;-82
2022/02/03 12:58:08;;;;;;;26.40;13.85;;;10.50;99.90;;;;;;4937138;28;20024;-79
2022/02/03 13:00:47;;;;;;;27.08;14.52;;;10.50;99.90;;;;;;4937955;28;20028;-86
2022/02/03 13:03:15;;;;;;;17.83;10.65;;;10.50;99.90;;;;;;4936717;29;20023;-77
2022/02/03 13:05:53;;;;;;;20.63;11.57;;;10.40;99.90;;;;;;4936772;29;20032;-81
2022/02/03 13:08:30;;;;;;;20.20;11.13;;;10.40;99.90;;;;;;4937074;29;20031;-79
2022/02/03 13:11:32;;;;;;;27.42;11.93;;;10.40;99.90;;;;;;4936908;28;20066;-83
2022/02/03 13:14:30;;;;;;;22.77;11.48;;;10.30;99.90;;;;;;4937876;28;20039;-80
2022/02/03 13:22:30;;;;;;;23.30;10.40;;;10.30;99.90;;;;;;4936190;28;19915;-85
2022/02/03 13:27:38;;;;;;;23.30;11.13;;;10.30;99.90;;;;;;4936766;29;20028;-81
2022/02/03 13:30:12;;;;;;;20.27;10.80;;;10.40;99.90;;;;;;4935804;29;20031;-84
2022/02/03 13:32:43;;;;;;;18.88;10.10;;;10.30;99.90;;;;;;4937400;28;20039;-80
2022/02/03 13:35:31;;;;;;;17.95;10.40;;;10.30;99.90;;;;;;4935609;29;20035;-77
2022/02/03 13:38:06;;;;;;;22.23;10.77;;;10.40;99.90;;;;;;4935765;28;20126;-79
2022/02/03 13:40:32;;;;;;;17.85;10.80;;;10.30;99.90;;;;;;4937725;28;20043;-78
2022/02/03 13:43:02;;;;;;;20.30;10.23;;;10.30;99.90;;;;;;4936608;28;20047;-77
2022/02/03 13:45:28;;;;;;;20.10;9.73;;;10.40;99.90;;;;;;4934589;28;20063;-83
2022/02/03 13:47:54;;;;;;;17.40;10.35;;;10.40;99.90;;;;;;4937117;29;20067;-85
2022/02/03 13:50:25;;;;;;;21.42;10.57;;;10.30;99.90;;;;;;4935937;28;20104;-83
2022/02/03 13:53:07;;;;;;;26.02;12.00;;;10.40;99.90;;;;;;4934788;28;20403;-78
2022/02/03 14:16:12;;;;;;;17.17;9.25;;;10.10;99.90;;;;;;4934577;28;20395;-80
2022/02/03 14:29:00;;;;;;;13.90;9.18;;;10.10;99.90;;;;;;4939625;28;20171;-80
2022/02/03 14:31:27;;;;;;;17.33;10.18;;;10.10;99.90;;;;;;4937527;29;20047;-82
2022/02/03 14:33:54;;;;;;;15.55;9.25;;;10.10;99.90;;;;;;4938031;28;20059;-82
2022/02/03 14:36:22;;;;;;;16.40;9.00;;;10.10;99.90;;;;;;4937051;29;20027;-82
2022/02/03 14:41:23;;;;;;;18.13;9.32;;;10.20;99.90;;;;;;4937396;28;20055;-88
2022/02/03 14:43:50;;;;;;;13.77;9.38;;;10.10;99.90;;;;;;4938794;29;20031;-83
2022/02/03 14:46:17;;;;;;;16.48;9.55;;;10.20;99.90;;;;;;4953833;28;20035;-83
2022/02/03 14:48:44;;;;;;;17.75;10.38;;;10.20;99.90;;;;;;4936032;28;20038;-83
2022/02/03 14:51:15;;;;;;;14.75;9.40;;;10.20;99.90;;;;;;4935198;29;20488;-81
2022/02/03 14:54:19;;;;;;;15.98;10.90;;;10.10;99.90;;;;;;4933485;28;20039;-80
2022/02/03 14:59:26;;;;;;;15.95;9.73;;;10.20;99.90;;;;;;4934119;29;20099;-80
2022/02/03 15:01:51;;;;;;;16.10;9.68;;;10.10;99.90;;;;;;4934183;28;20043;-78
2022/02/03 15:04:25;;;;;;;14.55;9.50;;;10.00;99.90;;;;;;4934789;28;20051;-73
2022/02/03 15:07:01;;;;;;;13.20;8.95;;;10.10;99.90;;;;;;4934316;28;20047;-79
2022/02/03 15:14:59;;;;;;;15.48;9.68;;;10.10;99.90;;;;;;4934630;29;20077;-79
2022/02/03 15:17:25;;;;;;;19.98;10.93;;;10.10;99.90;;;;;;4934548;28;20034;-80
2022/02/03 15:19:51;;;;;;;15.45;10.35;;;10.20;99.90;;;;;;4933288;28;20111;-80
2022/02/03 15:22:17;;;;;;;18.23;11.65;;;10.20;99.90;;;;;;4933743;28;20042;-81
2022/02/03 15:24:42;;;;;;;19.40;11.15;;;10.20;99.90;;;;;;4933947;28;20034;-78
2022/02/03 15:27:08;;;;;;;16.88;10.93;;;10.20;99.90;;;;;;4938434;29;20016;-81
2022/02/03 15:29:35;;;;;;;18.25;11.30;;;10.20;99.90;;;;;;4939424;28;20062;-82
2022/02/03 15:32:01;;;;;;;18.15;11.70;;;10.20;99.90;;;;;;4939255;28;20036;-81
2022/02/03 15:34:27;;;;;;;20.08;11.93;;;10.20;99.90;;;;;;4937730;28;20474;-84
2022/02/03 15:36:56;;;;;;;17.58;11.15;;;10.10;99.90;;;;;;4938500;28;20032;-85
2022/02/03 15:39:31;;;;;;;20.15;12.27;;;10.10;99.90;;;;;;4938134;29;20111;-82
2022/02/03 15:41:57;;;;;;;20.13;12.30;;;10.10;99.90;;;;;;4937303;29;20047;-81
2022/02/03 15:44:25;;;;;;;20.10;12.65;;;10.10;99.90;;;;;;4937806;28;20042;-81
2022/02/03 15:47:04;;;;;;;19.60;11.70;;;10.00;99.90;;;;;;4952047;28;20034;-83
2022/02/03 16:03:16;;;;;;;22.88;13.50;;;9.90;99.90;;;;;;4937718;29;20370;-80
2022/02/03 16:19:02;;;;;;;18.77;11.70;;;10.00;99.90;;;;;;4937532;28;20036;-85
2022/02/03 16:21:43;;;;;;;18.20;11.30;;;10.00;99.90;;;;;;4936960;29;20027;-80
2022/02/03 16:24:18;;;;;;;19.40;11.60;;;9.90;99.90;;;;;;4951965;28;20070;-79
2022/02/03 16:51:50;;;;;;;21.40;12.98;;;9.90;99.90;;;;;;4957786;28;20042;-87
2022/02/03 16:54:00;;;;;;;20.00;11.90;;;10.00;99.90;;;;;;4963101;28;20458;-83
2022/02/03 16:56:27;;;;;;;21.83;12.05;;;9.80;99.90;;;;;;4954456;28;20035;-83
2022/02/03 16:58:53;;;;;;;19.15;10.50;;;9.90;99.90;;;;;;4947790;28;20062;-88
2022/02/03 17:01:19;;;;;;;21.55;11.25;;;9.80;99.90;;;;;;4936682;28;20039;-86
2022/02/03 17:03:45;;;;;;;23.48;11.63;;;9.80;99.90;;;;;;4946816;28;20026;-82
2022/02/03 17:06:12;;;;;;;21.25;11.50;;;9.70;99.90;;;;;;4955495;28;20027;-80
2022/02/03 17:08:39;;;;;;;18.58;11.55;;;9.80;99.90;;;;;;4956639;28;20042;-91
2022/02/03 17:11:05;;;;;;;17.60;10.65;;;9.80;99.90;;;;;;4968676;28;20039;-89
2022/02/03 17:13:30;;;;;;;20.08;11.27;;;9.80;99.90;;;;;;4970227;28;20039;-91
2022/02/03 17:15:56;;;;;;;21.45;11.73;;;9.80;99.90;;;;;;4961526;28;20031;-86
2022/02/03 17:18:21;;;;;;;19.70;11.40;;;9.80;99.90;;;;;;4957323;28;20019;-87
2022/02/03 17:20:47;;;;;;;20.30;12.38;;;9.70;99.90;;;;;;4971547;28;20070;-85
2022/02/03 17:23:17;;;;;;;24.40;12.60;;;9.80;99.90;;;;;;4974419;28;20461;-91
2022/02/03 17:28:34;;;;;;;18.75;11.57;;;9.70;99.80;;;;;;4966959;28;20042;-86
2022/02/03 17:31:08;;;;;;;21.77;11.43;;;9.80;99.90;;;;;;4968965;28;20035;-88
2022/02/03 18:51:23;;;;;;;22.58;14.15;;;9.20;99.90;;;;;;4934911;28;20035;-86
2022/02/03 18:53:54;;;;;;;21.58;13.57;;;9.30;99.90;;;;;;4933710;28;20035;-85
2022/02/03 18:56:33;;;;;;;25.52;13.98;;;9.30;99.90;;;;;;4949959;28;20036;-83
2022/02/03 18:59:38;;;;;;;25.10;15.10;;;9.30;99.90;;;;;;4968739;28;20027;-81
2022/02/03 20:06:20;;;;;;;21.25;13.40;;;9.20;99.90;;;;;;4957031;29;20054;-82
2022/02/03 20:08:55;;;;;;;26.60;13.52;;;9.30;99.90;;;;;;4955213;28;20050;-83
2022/02/03 20:11:23;;;;;;;21.00;12.63;;;9.30;99.90;;;;;;4971375;28;20683;-81
2022/02/03 20:13:50;;;;;;;27.23;13.93;;;9.20;99.90;;;;;;4955787;28;20114;-84
2022/02/03 20:16:17;;;;;;;22.70;13.65;;;9.20;99.90;;;;;;4957560;28;20402;-83
2022/02/03 20:18:43;;;;;;;25.98;13.00;;;9.20;99.90;;;;;;4955456;28;20020;-84
2022/02/03 20:21:09;;;;;;;20.77;12.82;;;9.20;99.90;;;;;;4955634;29;20027;-83
2022/02/03 20:23:42;;;;;;;20.58;11.88;;;9.10;99.90;;;;;;4956372;28;20481;-82
2022/02/03 20:26:09;;;;;;;20.85;13.10;;;9.20;99.90;;;;;;4957690;28;20038;-87
2022/02/03 20:28:35;;;;;;;25.00;13.07;;;9.20;99.90;;;;;;4956594;28;20102;-85
2022/02/03 20:31:01;;;;;;;19.23;12.25;;;9.20;99.90;;;;;;4957085;28;20047;-89
2022/02/03 20:33:27;;;;;;;19.20;12.07;;;9.10;99.90;;;;;;4959736;28;20027;-86
2022/02/03 20:35:52;;;;;;;20.00;12.15;;;9.10;99.90;;;;;;4959273;28;20343;-88
2022/02/03 20:38:18;;;;;;;19.27;12.02;;;9.00;99.90;;;;;;4957015;28;20031;-85
2022/02/03 20:40:46;;;;;;;20.17;12.07;;;9.10;99.90;;;;;;4956530;28;20027;-85
2022/02/03 20:43:12;;;;;;;21.77;13.05;;;9.00;99.90;;;;;;4957111;28;20050;-86
2022/02/03 20:45:40;;;;;;;19.92;12.10;;;9.00;99.90;;;;;;4957803;28;20365;-87
2022/02/03 20:48:06;;;;;;;21.65;12.93;;;9.00;99.90;;;;;;4956580;28;20030;-86
2022/02/03 20:50:31;;;;;;;21.73;12.30;;;9.00;99.90;;;;;;4955718;28;20110;-85
2022/02/03 20:52:58;;;;;;;20.42;12.75;;;9.00;99.90;;;;;;4955961;28;20449;-85
2022/02/03 20:55:24;;;;;;;24.40;13.15;;;9.00;99.90;;;;;;4956201;28;20131;-85
2022/02/03 20:57:50;;;;;;;20.33;12.98;;;9.00;99.90;;;;;;4955612;28;20035;-84
2022/02/03 21:00:25;;;;;;;23.35;13.30;;;9.00;99.90;;;;;;4954467;28;20042;-84
2022/02/03 21:03:06;;;;;;;26.02;13.10;;;9.00;99.90;;;;;;4954786;28;20127;-82
2022/02/03 21:05:32;;;;;;;23.27;13.50;;;9.10;99.90;;;;;;4954879;28;20035;-81
2022/02/03 21:07:58;;;;;;;22.60;13.65;;;9.10;99.90;;;;;;4954908;28;20046;-81
2022/02/03 21:10:29;;;;;;;23.05;13.75;;;9.10;99.90;;;;;;4955052;28;20339;-83
2022/02/03 21:12:55;;;;;;;22.63;13.77;;;9.10;99.90;;;;;;4954504;28;20038;-83
2022/02/03 21:15:26;;;;;;;25.75;13.65;;;9.10;99.90;;;;;;4955276;28;20068;-83
2022/02/03 21:17:54;;;;;;;21.42;13.40;;;9.00;99.90;;;;;;4955000;28;20054;-83
2022/02/03 21:20:22;;;;;;;22.20;13.13;;;9.00;99.90;;;;;;4954740;28;20043;-81
2022/02/03 21:22:49;;;;;;;22.67;14.52;;;9.00;99.90;;;;;;4969758;28;20031;-79
2022/02/03 21:25:29;;;;;;;28.02;14.02;;;9.10;99.90;;;;;;4954331;28;20028;-84
2022/02/03 21:27:58;;;;;;;23.88;13.98;;;9.20;99.90;;;;;;4969691;28;20392;-83
2022/02/03 21:30:24;;;;;;;22.35;13.57;;;9.30;99.90;;;;;;4955337;28;20027;-85
2022/02/03 21:32:50;;;;;;;22.42;14.07;;;9.20;99.90;;;;;;4970176;28;20036;-80
2022/02/03 21:35:19;;;;;;;25.42;15.27;;;9.10;99.90;;;;;;4970133;28;20054;-83
2022/02/03 21:37:45;;;;;;;24.95;14.90;;;9.10;99.90;;;;;;4954926;28;20034;-84
2022/02/03 21:40:11;;;;;;;26.05;16.13;;;9.10;99.90;;;;;;4954513;28;20046;-82
2022/02/03 21:42:37;;;;;;;29.48;15.35;;;9.10;99.90;;;;;;4954261;28;20398;-82
2022/02/03 21:45:04;;;;;;;25.95;14.80;;;9.10;99.90;;;;;;4954879;28;20335;-81
2022/02/03 21:47:30;;;;;;;23.90;15.52;;;9.00;99.90;;;;;;4954113;28;20466;-84
2022/02/03 21:49:58;;;;;;;26.98;15.48;;;9.10;99.90;;;;;;4954114;28;20035;-80
2022/02/03 21:52:32;;;;;;;27.42;15.23;;;9.10;99.90;;;;;;4954513;28;20043;-81
2022/02/03 21:54:59;;;;;;;27.95;15.40;;;9.00;99.90;;;;;;4954114;28;20417;-81
2022/02/03 21:57:24;;;;;;;29.25;16.35;;;9.00;99.90;;;;;;4954640;28;20449;-83
2022/02/03 21:59:52;;;;;;;28.63;15.82;;;9.10;99.90;;;;;;4954011;28;20050;-81
2022/02/03 22:02:18;;;;;;;25.47;15.77;;;9.00;99.90;;;;;;4969417;28;20047;-79
2022/02/03 22:04:44;;;;;;;27.48;15.32;;;9.00;99.90;;;;;;4954416;28;20258;-83
2022/02/03 22:07:09;;;;;;;28.63;16.55;;;9.00;99.90;;;;;;4955118;28;20240;-84
2022/02/03 22:09:37;;;;;;;25.23;16.25;;;9.00;99.90;;;;;;4954902;28;20094;-80
2022/02/03 22:12:04;;;;;;;;;;;9.00;99.90;;;;;;4956621;28;20042;-79
2022/02/03 22:14:29;;;;;;;23.02;14.73;;;9.10;99.90;;;;;;4953931;28;19921;-82
2022/02/03 22:16:58;;;;;;;29.52;15.95;;;9.10;99.90;;;;;;4954056;28;20028;-82
2022/02/03 22:19:24;;;;;;;26.23;17.25;;;9.10;99.90;;;;;;4952893;28;20090;-85
2022/02/03 22:22:03;;;;;;;27.88;16.33;;;9.10;99.90;;;;;;4953331;28;20027;-83
2022/02/03 22:24:38;;;;;;;24.27;15.65;;;9.10;99.90;;;;;;4953783;28;20019;-79
2022/02/03 22:27:33;;;;;;;29.42;17.40;;;9.20;99.90;;;;;;4954037;28;20015;-82
2022/02/03 22:44:00;;;;;;;28.30;17.23;;;9.00;99.90;;;;;;4953959;28;20046;-82
2022/02/03 22:49:12;;;;;;;29.52;17.60;;;9.10;99.90;;;;;;4952072;28;20023;-83
2022/02/03 22:51:41;;;;;;;25.90;16.08;;;9.10;99.90;;;;;;4953309;28;20089;-81
2022/02/03 22:54:07;;;;;;;30.73;17.38;;;9.10;99.90;;;;;;4953117;28;20027;-81
2022/02/03 22:56:34;;;;;;;30.55;18.02;;;9.00;99.90;;;;;;4953199;28;20043;-82
2022/02/03 22:59:29;;;;;;;30.13;17.67;;;9.10;99.90;;;;;;4953610;28;20457;-81
2022/02/03 23:01:55;;;;;;;27.98;17.58;;;9.10;99.90;;;;;;4953903;28;20059;-84
2022/02/03 23:04:20;;;;;;;29.42;17.60;;;9.00;99.90;;;;;;4953471;28;20039;-83
2022/02/03 23:06:52;;;;;;;32.72;18.40;;;9.00;99.90;;;;;;4953987;28;20031;-83
2022/02/03 23:09:35;;;;;;;30.58;18.48;;;9.00;99.90;;;;;;4953829;28;20252;-83
2022/02/03 23:12:07;;;;;;;38.00;19.48;;;8.90;99.90;;;;;;4954473;28;20050;-83
2022/02/03 23:15:15;;;;;;;33.20;18.42;;;8.90;99.90;;;;;;4953397;28;20039;-84
2022/02/03 23:22:31;;;;;;;34.67;19.63;;;9.00;99.90;;;;;;4953857;28;20099;-83
2022/02/03 23:24:57;;;;;;;32.03;19.60;;;9.00;99.90;;;;;;4953194;28;20028;-81
2022/02/03 23:29:50;;;;;;;37.15;20.00;;;9.00;99.90;;;;;;4953996;28;20034;-85
2022/02/03 23:32:16;;;;;;;34.40;19.50;;;9.00;99.90;;;;;;4952906;28;20050;-85
2022/02/03 23:34:46;;;;;;;32.08;19.58;;;9.00;99.90;;;;;;4953080;28;20023;-84
2022/02/03 23:37:11;;;;;;;33.60;19.52;;;9.00;99.90;;;;;;4952984;28;20528;-84
2022/02/03 23:45:14;;;;;;;31.25;19.42;;;8.90;99.90;;;;;;4958604;28;20086;-83
2022/02/03 23:51:00;;;;;;;32.92;19.02;;;9.00;99.90;;;;;;4966723;28;20031;-80
